ETD476 OMAA-WADD
Flight info
| Callsign | ETD476 |
|---|---|
| Flight time | N/A |
| Altitude | 33000 |
| Route | KANIP N318 TOLDA L555 TOTOX P574 ELSAR/N0493F350 P574 PUGER R461 VESIS M630 JUNHA M635 GUKNO/N0487F370 M635 UDONO |
| Aircraft | B77W/H-SDE1E2E3FGHIJ2J3J4J5M1RWXY/LB1D1 |
Departure
| Time | 2026-05-03 22:44 |
|---|---|
| Airport | Zayed International Airport (OMAA) |
Arrival
| Time | N/A |
|---|---|
| Airport | Denpasar I Gusti Ngurah Rai International Airport (WADD) |
| Time | Latitude | Longitude | Altitude | Speed | Heading |
|---|---|---|---|---|---|
| 2026-05-03 22:44 | 24.49472 | 54.56413 | 3217 ft | 240 kts | 308° |
| 2026-05-03 22:44 | 24.50505 | 54.54960 | 3823 ft | 242 kts | 308° |
| 2026-05-03 22:44 | 24.51540 | 54.53500 | 4486 ft | 243 kts | 308° |
| 2026-05-03 22:44 | 24.52582 | 54.52030 | 5095 ft | 244 kts | 308° |
| 2026-05-03 22:45 | 24.53625 | 54.50559 | 5752 ft | 245 kts | 308° |
| 2026-05-03 22:45 | 24.54676 | 54.49074 | 6393 ft | 246 kts | 308° |
| 2026-05-03 22:45 | 24.55715 | 54.47605 | 7030 ft | 246 kts | 307° |
| 2026-05-03 22:45 | 24.56767 | 54.46118 | 7675 ft | 246 kts | 307° |
| 2026-05-03 22:46 | 24.57821 | 54.44627 | 8301 ft | 247 kts | 307° |
| 2026-05-03 22:46 | 24.58900 | 54.43149 | 8742 ft | 249 kts | 315° |
| 2026-05-03 22:46 | 24.60381 | 54.42149 | 8759 ft | 256 kts | 343° |
| 2026-05-03 22:46 | 24.62166 | 54.42053 | 8787 ft | 261 kts | 7° |
| 2026-05-03 22:47 | 24.63882 | 54.42763 | 8769 ft | 266 kts | 27° |
| 2026-05-03 22:47 | 24.65455 | 54.43823 | 8793 ft | 271 kts | 27° |
| 2026-05-03 22:47 | 24.67069 | 54.44920 | 8777 ft | 274 kts | 27° |
| 2026-05-03 22:47 | 24.68695 | 54.46018 | 8783 ft | 274 kts | 27° |
| 2026-05-03 22:48 | 24.70311 | 54.47102 | 8772 ft | 270 kts | 27° |
| 2026-05-03 22:48 | 24.71907 | 54.48167 | 8764 ft | 266 kts | 26° |
| 2026-05-03 22:48 | 24.73383 | 54.49375 | 8750 ft | 269 kts | 49° |
| 2026-05-03 22:48 | 24.74286 | 54.51222 | 8811 ft | 281 kts | 63° |
| 2026-05-03 22:49 | 24.75057 | 54.53200 | 8780 ft | 287 kts | 62° |
| 2026-05-03 22:49 | 24.75863 | 54.55227 | 8776 ft | 284 kts | 62° |
| 2026-05-03 22:49 | 24.76645 | 54.57186 | 8765 ft | 282 kts | 62° |
| 2026-05-03 22:49 | 24.77434 | 54.59163 | 8786 ft | 286 kts | 62° |
| 2026-05-03 22:50 | 24.78261 | 54.61222 | 9081 ft | 300 kts | 62° |
| 2026-05-03 22:50 | 24.79116 | 54.63355 | 9612 ft | 308 kts | 62° |
| 2026-05-03 22:50 | 24.79955 | 54.65539 | 10159 ft | 312 kts | 69° |
| 2026-05-03 22:50 | 24.80155 | 54.67947 | 10622 ft | 325 kts | 98° |
| 2026-05-03 22:51 | 24.79464 | 54.70314 | 11165 ft | 328 kts | 111° |
| 2026-05-03 22:51 | 24.78596 | 54.72656 | 11729 ft | 332 kts | 111° |
| 2026-05-03 22:51 | 24.77734 | 54.75025 | 12354 ft | 334 kts | 110° |
| 2026-05-03 22:51 | 24.76848 | 54.77360 | 12941 ft | 336 kts | 118° |
| 2026-05-03 22:52 | 24.75349 | 54.79344 | 13405 ft | 341 kts | 146° |
| 2026-05-03 22:52 | 24.73235 | 54.80475 | 13893 ft | 340 kts | 171° |
| 2026-05-03 22:52 | 24.70857 | 54.80650 | 14053 ft | 350 kts | 193° |
| 2026-05-03 22:52 | 24.68496 | 54.79924 | 14197 ft | 359 kts | 204° |
| 2026-05-03 22:53 | 24.66074 | 54.78981 | 14337 ft | 379 kts | 204° |
| 2026-05-03 22:53 | 24.63511 | 54.78067 | 14422 ft | 397 kts | 195° |
| 2026-05-03 22:53 | 24.60681 | 54.78034 | 14677 ft | 419 kts | 170° |
| 2026-05-03 22:53 | 24.57943 | 54.79244 | 15158 ft | 432 kts | 148° |
| 2026-05-03 22:54 | 24.55671 | 54.81406 | 15711 ft | 433 kts | 136° |
| 2026-05-03 22:54 | 24.53517 | 54.83771 | 16194 ft | 440 kts | 137° |
| 2026-05-03 22:54 | 24.51330 | 54.86139 | 16800 ft | 442 kts | 137° |
| 2026-05-03 22:54 | 24.49125 | 54.88503 | 17473 ft | 444 kts | 138° |
| 2026-05-03 22:55 | 24.46932 | 54.90833 | 18111 ft | 446 kts | 139° |
| 2026-05-03 22:55 | 24.44682 | 54.93211 | 18596 ft | 450 kts | 139° |
| 2026-05-03 22:55 | 24.42412 | 54.95603 | 19045 ft | 455 kts | 138° |
| 2026-05-03 22:55 | 24.40118 | 54.98018 | 19506 ft | 459 kts | 138° |
| 2026-05-03 22:56 | 24.37805 | 55.00452 | 19985 ft | 463 kts | 138° |
| 2026-05-03 22:56 | 24.35473 | 55.02906 | 20450 ft | 467 kts | 138° |
| 2026-05-03 22:56 | 24.33122 | 55.05384 | 20908 ft | 471 kts | 136° |
| 2026-05-03 22:56 | 24.31016 | 55.08164 | 21326 ft | 477 kts | 123° |
| 2026-05-03 22:57 | 24.29378 | 55.11347 | 21775 ft | 481 kts | 118° |
| 2026-05-03 22:57 | 24.27828 | 55.14614 | 22215 ft | 485 kts | 117° |
| 2026-05-03 22:57 | 24.26258 | 55.17897 | 22644 ft | 489 kts | 118° |
| 2026-05-03 22:57 | 24.24633 | 55.21189 | 23084 ft | 492 kts | 119° |
| 2026-05-03 22:58 | 24.22965 | 55.24476 | 23473 ft | 496 kts | 119° |
| 2026-05-03 22:58 | 24.21260 | 55.27784 | 23806 ft | 499 kts | 120° |
| 2026-05-03 22:58 | 24.19543 | 55.31111 | 24160 ft | 503 kts | 120° |
| 2026-05-03 22:58 | 24.17820 | 55.34461 | 24493 ft | 506 kts | 118° |
| 2026-05-03 22:59 | 24.16250 | 55.37920 | 24832 ft | 509 kts | 114° |
| 2026-05-03 22:59 | 24.14891 | 55.41461 | 25157 ft | 512 kts | 111° |
| 2026-05-03 22:59 | 24.13578 | 55.45105 | 25464 ft | 516 kts | 111° |
| 2026-05-03 22:59 | 24.12247 | 55.48775 | 25782 ft | 519 kts | 111° |
| 2026-05-03 23:00 | 24.10871 | 55.52455 | 26104 ft | 522 kts | 112° |
| 2026-05-03 23:00 | 24.09456 | 55.56131 | 26427 ft | 525 kts | 112° |
| 2026-05-03 23:00 | 24.08016 | 55.59830 | 26729 ft | 529 kts | 113° |
| 2026-05-03 23:00 | 24.06567 | 55.63546 | 27022 ft | 532 kts | 113° |
| 2026-05-03 23:01 | 24.04982 | 55.67218 | 27289 ft | 535 kts | 117° |
| 2026-05-03 23:01 | 24.03281 | 55.70795 | 27583 ft | 538 kts | 118° |
| 2026-05-03 23:01 | 24.01499 | 55.74475 | 27878 ft | 541 kts | 118° |
| 2026-05-03 23:01 | 23.99750 | 55.78077 | 28162 ft | 544 kts | 118° |
| 2026-05-03 23:02 | 23.97978 | 55.81747 | 28453 ft | 546 kts | 118° |
| 2026-05-03 23:02 | 23.96206 | 55.85448 | 28681 ft | 550 kts | 118° |
| 2026-05-03 23:02 | 23.94435 | 55.89160 | 28932 ft | 552 kts | 118° |
| 2026-05-03 23:02 | 23.92652 | 55.92891 | 29237 ft | 553 kts | 118° |
| 2026-05-03 23:03 | 23.90870 | 55.96616 | 29591 ft | 553 kts | 118° |
| 2026-05-03 23:03 | 23.89111 | 56.00288 | 29946 ft | 553 kts | 118° |
| 2026-05-03 23:03 | 23.87305 | 56.04056 | 30260 ft | 553 kts | 118° |
| 2026-05-03 23:03 | 23.85543 | 56.07728 | 30557 ft | 552 kts | 118° |
| 2026-05-03 23:04 | 23.83758 | 56.11445 | 30893 ft | 552 kts | 118° |
| 2026-05-03 23:04 | 23.81971 | 56.15167 | 31195 ft | 551 kts | 118° |
| 2026-05-03 23:04 | 23.80191 | 56.18872 | 31435 ft | 552 kts | 118° |
| 2026-05-03 23:04 | 23.78396 | 56.22605 | 31741 ft | 552 kts | 118° |
| 2026-05-03 23:05 | 23.76608 | 56.26320 | 32065 ft | 551 kts | 118° |
| 2026-05-03 23:05 | 23.74847 | 56.29979 | 32329 ft | 551 kts | 118° |
| 2026-05-03 23:05 | 23.73061 | 56.33685 | 32612 ft | 551 kts | 119° |
| 2026-05-03 23:05 | 23.71284 | 56.37371 | 32922 ft | 549 kts | 119° |
| 2026-05-03 23:06 | 23.69496 | 56.41075 | 32848 ft | 553 kts | 119° |
| 2026-05-03 23:06 | 23.65907 | 56.48503 | 32859 ft | 552 kts | 119° |
| 2026-05-03 23:07 | 23.62329 | 56.55897 | 32861 ft | 550 kts | 119° |
| 2026-05-03 23:07 | 23.58750 | 56.63281 | 32861 ft | 549 kts | 119° |
| 2026-05-03 23:08 | 23.55184 | 56.70627 | 32868 ft | 548 kts | 119° |
| 2026-05-03 23:08 | 23.51641 | 56.77915 | 32868 ft | 548 kts | 119° |